HUEN

Entebbe International Airport

Kampala, Uganda
METAR HUEN 170230Z 04003KT 8000 FEW018 FEW020CB 20/18 Q1016
Observed Flight Rules
Oct-17 @ 02:30 UTC (39 minutes ago) Marginal Visual Flight Rules
Wind Visibility Clouds
40° at 3 knots 7,998 meters
  • Few at 1,800' AGL
  • Few at 2,000' AGL
Temperatures Readings
Current 20°C / 68°F
Dewpoint 18°C / 64°F
Humidity 88%
Altimeter 30" Hg
Pressure 1016 hPa
Elevation 1155
METAR HUEN 170230Z 04003KT 8000 FEW018 FEW020CB 20/18 Q1016
Observed Flight Rules
Oct-17 @ 02:30 UTC
(39 minutes ago)
MVFR
Wind Visibility
40° at 3 knots 7,998 meters
Clouds
  • Few at 1,800' AGL
  • Few at 2,000' AGL
Temperature Dewpoint
20°C / 68°F 18°C / 64°F
Humidity Altimeter Pressure
88% 30" Hg 1016 hPa